Time;durP1;ratioP1;P1;durP2;ratioP2;P2;SDS_P1;SDS_P2;PMS_P1;PMS_P2;Temp;Humidity;BMP_temperature;BMP_pressure;BME280_temperature;BME280_humidity;BME280_pressure;Samples;Min_cycle;Max_cycle;Signal;HPM_P1;HPM_P2
2021/04/05 00:00:32;;;;;;;6.00;3.93;;;;;;;0.12;68.70;98546.75;5053437;28;20029;-62
2021/04/05 00:02:58;;;;;;;4.67;3.87;;;;;;;0.12;69.13;98542.56;5053282;28;20405;-62
2021/04/05 00:05:32;;;;;;;8.23;4.00;;;;;;;0.16;68.93;98543.47;5053967;28;20306;-62
2021/04/05 00:07:58;;;;;;;7.43;4.50;;;;;;;0.09;68.96;98534.94;5054863;28;20021;-62
2021/04/05 00:10:26;;;;;;;6.53;4.00;;;;;;;0.13;69.23;98548.47;5051877;28;20028;-62
2021/04/05 00:12:55;;;;;;;5.83;3.80;;;;;;;0.06;69.39;98541.59;5053684;28;20021;-62
2021/04/05 00:15:21;;;;;;;4.87;3.73;;;;;;;0.00;69.49;98535.59;5055231;28;20039;-62
2021/04/05 00:17:47;;;;;;;4.90;3.80;;;;;;;0.05;69.39;98533.16;5054743;28;20382;-62
2021/04/05 00:20:16;;;;;;;7.73;4.17;;;;;;;-0.03;69.74;98533.00;5054261;28;20046;-62
2021/04/05 00:22:43;;;;;;;6.83;4.00;;;;;;;-0.02;69.59;98529.69;5026686;28;20033;-62
2021/04/05 00:25:10;;;;;;;4.53;3.77;;;;;;;-0.06;69.58;98527.06;5053268;28;20111;-62
2021/04/05 00:27:37;;;;;;;10.53;4.30;;;;;;;0.00;69.69;98525.50;5054581;28;20036;-61
2021/04/05 00:30:09;;;;;;;6.70;3.67;;;;;;;0.01;69.57;98523.84;5050958;28;20395;-61
2021/04/05 00:32:35;;;;;;;7.90;4.70;;;;;;;-0.04;69.40;98521.22;5054037;28;20033;-61
2021/04/05 00:35:00;;;;;;;5.10;4.03;;;;;;;-0.05;69.57;98517.03;5054114;28;20397;-62
2021/04/05 00:37:25;;;;;;;5.47;3.43;;;;;;;-0.06;69.48;98511.94;5052582;28;20384;-62
2021/04/05 00:39:51;;;;;;;7.60;3.93;;;;;;;-0.09;70.08;98505.19;5053645;28;20371;-62
2021/04/05 00:42:18;;;;;;;6.90;4.00;;;;;;;-0.11;70.49;98509.34;5038073;28;20037;-62
2021/04/05 00:44:44;;;;;;;6.70;4.40;;;;;;;-0.15;70.50;98502.53;5053653;28;20256;-62
2021/04/05 00:47:09;;;;;;;8.23;3.80;;;;;;;-0.16;70.21;98485.72;5053536;28;20044;-61
2021/04/05 00:49:34;;;;;;;4.67;3.40;;;;;;;-0.13;69.97;98492.50;5054700;28;20025;-62
2021/04/05 00:52:01;;;;;;;6.23;3.43;;;;;;;-0.13;70.00;98489.97;5053744;28;20037;-61
2021/04/05 00:54:26;;;;;;;8.00;3.70;;;;;;;-0.16;70.16;98482.34;5054522;28;20044;-62
2021/04/05 00:56:52;;;;;;;4.97;3.70;;;;;;;-0.16;70.22;98478.16;5054064;28;20037;-62
2021/04/05 00:59:19;;;;;;;7.80;4.10;;;;;;;-0.13;70.07;98474.88;5053733;28;20039;-62
2021/04/05 01:01:44;;;;;;;8.27;3.93;;;;;;;-0.14;70.21;98471.50;5052606;28;20063;-62
2021/04/05 01:04:10;;;;;;;5.63;4.07;;;;;;;-0.14;69.98;98466.44;5070265;28;20088;-62
2021/04/05 01:06:36;;;;;;;6.00;3.70;;;;;;;-0.14;70.02;98461.41;5072524;28;20032;-62
2021/04/05 01:09:04;;;;;;;9.73;5.20;;;;;;;-0.12;70.13;98456.38;5072089;28;20214;-62
2021/04/05 01:11:31;;;;;;;14.53;8.27;;;;;;;-0.15;70.02;98451.28;5075938;28;20111;-62
2021/04/05 01:13:57;;;;;;;14.03;8.13;;;;;;;-0.20;70.33;98447.81;5077249;28;20269;-62
2021/04/05 01:16:28;;;;;;;17.57;7.43;;;;;;;-0.21;70.75;98436.06;5077715;28;20043;-62
2021/04/05 01:18:55;;;;;;;10.33;6.20;;;;;;;-0.26;71.16;98440.16;5077310;28;20108;-62
2021/04/05 01:21:21;;;;;;;13.57;7.03;;;;;;;-0.29;71.14;98435.03;5076538;28;20024;-62
2021/04/05 01:23:46;;;;;;;9.23;4.33;;;;;;;-0.25;71.55;98430.09;5077565;28;20309;-61
2021/04/05 01:26:12;;;;;;;4.03;3.63;;;;;;;-0.19;70.55;98429.38;5076257;28;20043;-62
2021/04/05 01:28:38;;;;;;;5.80;4.70;;;;;;;-0.14;70.18;98422.78;5077239;28;20028;-61
2021/04/05 01:31:04;;;;;;;5.37;4.20;;;;;;;-0.09;70.00;98427.09;5075952;28;20372;-62
2021/04/05 01:33:37;;;;;;;5.60;3.23;;;;;;;-0.08;70.29;98420.34;5076244;28;20028;-62
2021/04/05 01:36:11;;;;;;;7.90;3.87;;;;;;;-0.16;70.34;98419.34;5076148;28;20055;-62
2021/04/05 01:38:41;;;;;;;7.27;3.57;;;;;;;-0.16;70.62;98414.31;5074855;28;20039;-62
2021/04/05 01:41:08;;;;;;;5.80;3.43;;;;;;;-0.24;70.62;98411.66;5074565;28;20325;-61
2021/04/05 01:43:34;;;;;;;5.80;3.23;;;;;;;-0.21;70.57;98411.72;5074596;28;20050;-61
2021/04/05 01:46:01;;;;;;;3.80;3.40;;;;;;;-0.24;70.22;98400.72;5075090;28;20039;-61
2021/04/05 01:48:28;;;;;;;5.77;3.53;;;;;;;-0.21;70.76;98401.63;5073884;28;20068;-61
2021/04/05 01:51:02;;;;;;;6.83;3.27;;;;;;;-0.20;70.37;98393.25;5076741;28;20425;-61
2021/04/05 01:53:28;;;;;;;5.70;3.33;;;;;;;-0.23;70.35;98387.31;5075504;28;20065;-63
2021/04/05 01:55:57;;;;;;;4.00;3.30;;;;;;;-0.23;70.51;98383.16;5075800;28;20050;-63
2021/04/05 01:58:23;;;;;;;5.30;4.00;;;;;;;-0.18;70.18;98381.56;5074463;28;20044;-61
2021/04/05 02:00:50;;;;;;;7.30;3.20;;;;;;;-0.01;69.59;98380.22;5076151;28;20277;-61
2021/04/05 02:03:15;;;;;;;5.03;3.43;;;;;;;-0.04;69.48;98374.25;5066154;28;20106;-61
2021/04/05 02:05:52;;;;;;;5.40;3.00;;;;;;;-0.09;69.40;98366.63;5055070;28;20029;-61
2021/04/05 02:08:24;;;;;;;7.43;3.33;;;;;;;-0.13;69.06;98369.88;5054993;28;20036;-61
2021/04/05 02:10:52;;;;;;;7.60;3.70;;;;;;;-0.15;69.97;98363.13;5056361;28;20135;-61
2021/04/05 02:13:21;;;;;;;3.47;2.80;;;;;;;-0.16;70.43;98359.75;5055012;28;20041;-61
2021/04/05 02:15:48;;;;;;;4.70;3.37;;;;;;;-0.08;70.90;98363.25;5039177;28;20120;-61
2021/04/05 02:18:14;;;;;;;5.47;3.33;;;;;;;0.00;69.94;98366.78;5054713;28;20057;-63
2021/04/05 02:20:40;;;;;;;5.73;3.63;;;;;;;0.03;69.31;98365.13;5056433;28;20068;-62
2021/04/05 02:23:06;;;;;;;5.30;3.70;;;;;;;0.19;68.59;98354.50;5055580;28;20037;-62
2021/04/05 02:25:33;;;;;;;6.93;4.13;;;;;;;0.16;68.54;98350.28;5054831;28;20404;-62
2021/04/05 02:28:03;;;;;;;5.23;3.37;;;;;;;0.13;68.91;98342.63;5054038;28;20376;-62
2021/04/05 02:30:30;;;;;;;3.27;2.97;;;;;;;0.08;69.41;98338.34;5054904;28;20029;-63
2021/04/05 02:33:04;;;;;;;4.20;3.43;;;;;;;0.10;68.98;98340.06;5055576;28;20278;-62
2021/04/05 02:35:32;;;;;;;5.70;3.00;;;;;;;0.07;69.08;98331.63;5054250;28;20131;-62
2021/04/05 02:38:00;;;;;;;4.20;3.80;;;;;;;-0.01;69.17;98326.44;5054998;28;20036;-62
2021/04/05 02:40:26;;;;;;;7.93;4.00;;;;;;;-0.13;69.36;98323.72;5052755;28;20362;-62
2021/04/05 02:42:53;;;;;;;4.30;3.57;;;;;;;-0.12;69.96;98328.75;5054698;28;20025;-64
2021/04/05 02:45:20;;;;;;;4.20;3.30;;;;;;;-0.17;70.08;98319.44;5055746;28;20032;-62
2021/04/05 02:47:49;;;;;;;5.70;3.30;;;;;;;-0.18;70.27;98315.22;5053322;28;20127;-62
2021/04/05 02:50:15;;;;;;;8.83;3.90;;;;;;;-0.17;69.76;98307.66;5038857;28;20141;-62
2021/04/05 02:52:42;;;;;;;5.87;4.47;;;;;;;-0.16;69.89;98303.50;5054445;28;20053;-62
2021/04/05 02:55:09;;;;;;;5.07;3.60;;;;;;;-0.20;69.76;98310.16;5056487;28;20327;-62
2021/04/05 02:57:37;;;;;;;5.97;3.30;;;;;;;-0.25;70.18;98300.81;5057227;28;20037;-62
2021/04/05 03:00:16;;;;;;;5.40;3.50;;;;;;;-0.25;70.60;98299.13;5056001;28;20081;-62
2021/04/05 03:02:45;;;;;;;6.03;4.17;;;;;;;-0.31;70.53;98293.16;5054192;28;20084;-62
2021/04/05 03:05:11;;;;;;;6.17;4.20;;;;;;;-0.27;70.56;98294.91;5055057;28;20047;-62
2021/04/05 03:07:37;;;;;;;9.57;4.23;;;;;;;-0.27;70.37;98275.59;5053365;28;20105;-62
2021/04/05 03:10:05;;;;;;;4.63;3.57;;;;;;;-0.28;70.39;98286.50;5044407;28;20035;-62
2021/04/05 03:12:34;;;;;;;6.67;3.40;;;;;;;-0.29;70.65;98269.69;5054188;28;20067;-62
2021/04/05 03:14:59;;;;;;;5.83;3.83;;;;;;;-0.32;71.15;98263.75;5053993;28;20025;-62
2021/04/05 03:17:27;;;;;;;4.90;3.10;;;;;;;-0.34;70.92;98271.25;5054280;28;20040;-62
2021/04/05 03:19:53;;;;;;;4.57;3.03;;;;;;;-0.38;71.08;98264.47;5053887;28;20083;-62
2021/04/05 03:22:18;;;;;;;4.07;3.20;;;;;;;-0.35;71.06;98264.56;5053364;28;20056;-62
2021/04/05 03:24:44;;;;;;;4.27;3.03;;;;;;;-0.30;70.68;98257.09;5054305;28;20028;-62
2021/04/05 03:27:10;;;;;;;4.77;4.00;;;;;;;-0.29;70.97;98257.09;5036966;28;20040;-62
2021/04/05 03:29:38;;;;;;;3.60;3.10;;;;;;;-0.28;70.46;98253.75;5055647;28;20029;-62
2021/04/05 03:32:07;;;;;;;3.40;3.10;;;;;;;-0.32;70.96;98257.03;5052044;28;20033;-61
2021/04/05 03:34:36;;;;;;;5.40;3.50;;;;;;;-0.35;71.03;98254.47;5053089;28;20028;-62
2021/04/05 03:37:08;;;;;;;4.70;3.57;;;;;;;-0.30;71.05;98254.56;5054359;28;20251;-62
2021/04/05 03:39:35;;;;;;;6.00;3.23;;;;;;;-0.31;70.81;98258.75;5053031;28;20041;-62
2021/04/05 03:42:29;;;;;;;4.73;3.30;;;;;;;-0.24;70.31;98263.06;5053364;28;20043;-61
2021/04/05 03:45:02;;;;;;;3.47;3.17;;;;;;;-0.08;69.53;98252.41;5054279;28;20032;-61
2021/04/05 03:47:57;;;;;;;4.07;3.23;;;;;;;-0.05;69.26;98247.44;5052186;28;20086;-61
2021/04/05 03:50:35;;;;;;;4.28;2.70;;;;;;;-0.13;69.96;98243.09;5053527;28;20476;-62
2021/04/05 03:53:16;;;;;;;7.10;4.03;;;;;;;-0.17;70.12;98237.13;5053480;28;20059;-62
2021/04/05 03:55:44;;;;;;;5.53;3.40;;;;;;;-0.19;70.77;98228.72;5035461;28;20108;-62
2021/04/05 03:58:14;;;;;;;3.73;3.23;;;;;;;-0.13;69.90;98218.75;5053452;28;20048;-62
2021/04/05 04:00:42;;;;;;;5.47;2.87;;;;;;;0.04;69.01;98220.72;5053742;28;20405;-62
2021/04/05 04:03:13;;;;;;;3.87;2.83;;;;;;;0.16;68.47;98216.69;5060961;28;20076;-61
2021/04/05 04:05:44;;;;;;;4.23;3.50;;;;;;;0.11;68.80;98212.41;5072393;28;20032;-62
2021/04/05 04:10:44;;;;;;;4.70;4.20;;;;;;;0.13;68.63;98201.50;5074047;28;20043;-62
2021/04/05 04:13:11;;;;;;;5.03;3.93;;;;;;;0.02;68.80;98199.66;5060675;28;20024;-62
2021/04/05 04:15:37;;;;;;;4.97;3.43;;;;;;;-0.04;69.37;98207.97;5073393;28;20067;-61
2021/04/05 04:18:04;;;;;;;4.90;3.40;;;;;;;0.01;69.28;98201.31;5069740;28;20025;-63
2021/04/05 04:20:30;;;;;;;6.60;4.03;;;;;;;0.13;68.66;98198.16;5073821;28;20028;-64
2021/04/05 04:22:57;;;;;;;7.27;4.10;;;;;;;0.10;68.75;98193.06;5074277;28;20627;-62
2021/04/05 04:25:23;;;;;;;4.43;3.10;;;;;;;0.05;69.00;98192.13;5074715;28;20040;-61
2021/04/05 04:27:49;;;;;;;4.97;3.23;;;;;;;-0.02;68.61;98169.38;5074406;28;20127;-61
2021/04/05 04:30:33;;;;;;;6.50;3.80;;;;;;;0.06;69.10;98179.56;5075029;28;20088;-61
2021/04/05 04:33:06;;;;;;;4.90;3.10;;;;;;;0.06;68.86;98182.09;5072856;28;20031;-61
2021/04/05 04:35:35;;;;;;;4.93;4.07;;;;;;;0.16;68.58;98181.41;5072996;28;20036;-62
2021/04/05 04:38:02;;;;;;;4.70;3.30;;;;;;;0.16;68.56;98171.34;5069376;28;20094;-63
2021/04/05 04:40:30;;;;;;;4.90;3.17;;;;;;;0.08;69.29;98174.56;5073693;28;20051;-61
2021/04/05 04:43:02;;;;;;;5.50;3.63;;;;;;;0.17;68.56;98173.00;5072352;28;20020;-62
2021/04/05 04:45:28;;;;;;;6.27;3.17;;;;;;;0.05;68.80;98169.47;5073690;28;20537;-60
2021/04/05 04:47:55;;;;;;;4.10;3.27;;;;;;;0.00;69.58;98160.16;5076673;28;20036;-60
2021/04/05 04:50:22;;;;;;;3.93;3.53;;;;;;;-0.04;70.04;98157.56;5074780;28;20362;-62
2021/04/05 04:52:48;;;;;;;5.57;3.60;;;;;;;-0.02;69.92;98159.31;5074596;28;20048;-62
2021/04/05 04:55:15;;;;;;;7.13;3.90;;;;;;;0.00;70.07;98155.13;5077159;28;20600;-62
2021/04/05 04:57:41;;;;;;;6.53;4.57;;;;;;;0.00;70.30;98151.78;5076150;28;20507;-62
2021/04/05 05:00:07;;;;;;;5.60;4.23;;;;;;;0.09;69.98;98148.53;5076818;28;20040;-62
2021/04/05 05:02:36;;;;;;;5.23;3.73;;;;;;;0.21;70.00;98154.56;5072241;28;20041;-62
2021/04/05 05:05:03;;;;;;;6.87;4.27;;;;;;;0.34;69.35;98151.41;5061478;28;20033;-62
2021/04/05 05:07:30;;;;;;;8.57;3.90;;;;;;;0.53;68.51;98139.88;5052532;28;20148;-62
2021/04/05 05:09:56;;;;;;;8.37;5.40;;;;;;;0.69;67.61;98143.44;5053044;28;20047;-62
2021/04/05 05:12:21;;;;;;;5.50;4.53;;;;;;;0.78;67.00;98138.50;5053638;28;20515;-62
2021/04/05 05:14:48;;;;;;;7.87;4.13;;;;;;;0.78;67.07;98134.31;5052479;28;20040;-62
2021/04/05 05:17:14;;;;;;;6.50;4.10;;;;;;;0.87;66.81;98126.84;5048366;28;20068;-62
2021/04/05 05:19:42;;;;;;;5.30;3.63;;;;;;;0.99;66.51;98127.78;5052431;28;20040;-62
2021/04/05 05:22:08;;;;;;;5.17;3.93;;;;;;;1.12;66.53;98129.63;5055466;28;20021;-62
2021/04/05 05:24:36;;;;;;;5.43;4.93;;;;;;;1.21;66.31;98129.72;5056658;28;20065;-62
2021/04/05 05:27:03;;;;;;;8.43;4.30;;;;;;;1.34;66.13;98132.38;5053469;28;20025;-62
2021/04/05 05:29:29;;;;;;;5.73;4.83;;;;;;;1.45;66.52;98119.84;5049976;28;20033;-62
2021/04/05 05:31:55;;;;;;;7.20;4.70;;;;;;;1.68;65.14;98118.34;5057878;28;20043;-62
2021/04/05 05:34:23;;;;;;;8.63;4.93;;;;;;;1.84;64.61;98116.78;5047273;28;20092;-62
2021/04/05 05:36:49;;;;;;;8.13;4.40;;;;;;;1.98;63.93;98116.88;5058053;28;20131;-62
2021/04/05 05:39:16;;;;;;;5.50;3.83;;;;;;;2.14;63.57;98109.38;5055596;28;20079;-62
2021/04/05 05:42:06;;;;;;;4.97;3.30;;;;;;;2.35;63.13;98115.38;5056460;28;20044;-62
2021/04/05 05:44:43;;;;;;;6.97;3.37;;;;;;;2.59;62.05;98118.88;5052728;28;20108;-62
2021/04/05 05:47:30;;;;;;;7.37;3.73;;;;;;;2.84;60.92;98114.78;5055518;28;20040;-62
2021/04/05 05:50:12;;;;;;;5.03;3.10;;;;;;;3.08;60.38;98103.84;5052336;28;20103;-62
2021/04/05 05:52:46;;;;;;;4.43;2.83;;;;;;;3.30;59.48;98102.19;5058960;28;20029;-62
2021/04/05 05:55:26;;;;;;;5.27;3.90;;;;;;;3.53;58.57;98096.28;5052850;28;20147;-62
2021/04/05 05:58:24;;;;;;;7.40;4.50;;;;;;;3.74;58.98;98094.59;5051878;28;20029;-61
2021/04/05 06:01:10;;;;;;;6.80;4.37;;;;;;;3.95;58.66;98090.34;5050474;28;20061;-61
2021/04/05 06:03:48;;;;;;;5.67;3.73;;;;;;;4.00;58.36;98080.19;5050508;28;20426;-61
2021/04/05 06:06:40;;;;;;;3.90;3.47;;;;;;;4.21;58.50;98071.69;5054088;28;20033;-61
2021/04/05 06:09:27;;;;;;;6.67;3.40;;;;;;;4.45;57.74;98071.63;5055451;28;20021;-61
2021/04/05 06:12:12;;;;;;;4.53;3.30;;;;;;;4.65;58.51;98074.91;5054315;28;20082;-62
2021/04/05 06:14:46;;;;;;;7.18;3.35;;;;;;;4.83;57.69;98061.28;5055837;28;20516;-61
2021/04/05 06:17:29;;;;;;;4.85;3.00;;;;;;;5.00;57.73;98062.88;5053999;28;20457;-61
2021/04/05 06:20:20;;;;;;;8.93;3.90;;;;;;;5.26;58.17;98061.88;5055348;28;20116;-61
2021/04/05 06:23:04;;;;;;;5.80;4.23;;;;;;;5.41;57.64;98056.66;5039761;28;20463;-62
2021/04/05 06:25:48;;;;;;;4.60;3.57;;;;;;;5.76;57.03;98061.44;5053454;28;20033;-63
2021/04/05 06:28:40;;;;;;;4.37;3.93;;;;;;;5.95;57.29;98060.44;5055119;28;20037;-61
2021/04/05 06:31:24;;;;;;;4.83;3.53;;;;;;;6.25;57.14;98052.47;5054629;28;20139;-61
2021/04/05 06:33:54;;;;;;;6.87;3.70;;;;;;;6.67;55.11;98047.72;5054861;28;20052;-61
2021/04/05 06:36:23;;;;;;;4.50;4.10;;;;;;;7.02;54.48;98049.81;5040718;28;20108;-61
2021/04/05 06:38:54;;;;;;;5.73;3.57;;;;;;;7.27;53.61;98036.69;5053212;28;20440;-62
2021/04/05 06:41:25;;;;;;;5.83;3.60;;;;;;;7.59;52.01;98037.88;5053589;28;20429;-61
2021/04/05 06:44:28;;;;;;;9.23;4.13;;;;;;;7.94;50.81;98045.75;5054694;28;20044;-62
2021/04/05 06:47:15;;;;;;;5.40;4.00;;;;;;;8.13;50.48;98033.50;5055124;28;20029;-62
2021/04/05 06:49:46;;;;;;;5.13;3.17;;;;;;;8.34;49.12;98042.50;5053511;28;20283;-62
2021/04/05 06:52:31;;;;;;;3.97;3.27;;;;;;;8.53;48.53;98023.38;5053322;28;20072;-62
2021/04/05 06:55:14;;;;;;;5.37;3.37;;;;;;;8.74;47.11;98030.59;5052829;28;20068;-62
2021/04/05 06:57:49;;;;;;;7.03;3.97;;;;;;;8.89;47.11;98029.41;5054912;28;20032;-62
2021/04/05 07:00:28;;;;;;;4.23;3.07;;;;;;;9.14;46.76;98025.44;5053997;28;20170;-63
2021/04/05 07:03:18;;;;;;;4.50;3.00;;;;;;;9.43;44.86;98023.03;5053850;28;20056;-61
2021/04/05 07:05:52;;;;;;;4.73;2.90;;;;;;;9.55;44.73;98016.75;5050215;28;20060;-61
2021/04/05 07:08:36;;;;;;;3.60;2.50;;;;;;;9.61;43.79;98011.50;5037314;28;20115;-61
2021/04/05 07:11:13;;;;;;;4.53;3.23;;;;;;;9.76;43.79;98015.41;5052731;28;20037;-62
2021/04/05 07:13:52;;;;;;;6.07;3.10;;;;;;;9.78;43.65;98011.91;5053207;28;20025;-62
2021/04/05 07:16:59;;;;;;;3.90;2.90;;;;;;;9.92;43.10;98002.16;5051339;28;20020;-62
2021/04/05 07:19:53;;;;;;;3.50;2.97;;;;;;;9.97;43.64;97997.72;5051941;28;20064;-62
2021/04/05 07:22:40;;;;;;;3.57;2.87;;;;;;;10.08;41.95;97998.31;5053164;28;20033;-62
2021/04/05 07:25:09;;;;;;;7.37;2.50;;;;;;;10.01;42.44;97995.94;5052243;28;20020;-62
2021/04/05 07:27:53;;;;;;;4.07;3.07;;;;;;;10.27;41.92;97998.66;5051671;28;20140;-63
2021/04/05 07:30:27;;;;;;;4.60;2.67;;;;;;;10.44;40.94;97996.44;5052220;28;20515;-64
2021/04/05 07:33:31;;;;;;;5.90;2.70;;;;;;;10.61;40.74;97998.53;5039457;28;20060;-64
2021/04/05 07:36:14;;;;;;;3.87;2.67;;;;;;;10.82;41.32;97995.31;5052662;28;20045;-63
2021/04/05 07:38:46;;;;;;;3.30;3.00;;;;;;;10.96;40.46;97992.34;5052034;28;20055;-63
2021/04/05 07:41:32;;;;;;;3.30;2.63;;;;;;;11.08;40.19;97993.69;5051144;28;20036;-63
2021/04/05 07:44:30;;;;;;;2.93;2.70;;;;;;;11.08;38.85;97983.44;5051447;28;20154;-63
2021/04/05 07:47:19;;;;;;;4.20;2.77;;;;;;;11.14;39.22;97985.81;5051853;28;20029;-63
2021/04/05 07:50:21;;;;;;;2.93;2.60;;;;;;;11.45;38.23;97981.38;5052328;28;20362;-64
2021/04/05 07:53:04;;;;;;;3.57;2.87;;;;;;;11.52;38.52;97966.59;5052378;28;20041;-62
2021/04/05 07:55:30;;;;;;;3.23;2.93;;;;;;;11.56;37.83;97971.59;5052863;28;20063;-63
2021/04/05 07:58:01;;;;;;;5.10;3.33;;;;;;;11.66;38.84;97962.69;5033024;28;20147;-63
2021/04/05 08:00:52;;;;;;;4.43;3.33;;;;;;;11.88;38.10;97962.84;5051567;28;20506;-63
2021/04/05 08:03:35;;;;;;;4.03;3.35;;;;;;;11.96;38.33;97960.81;5051141;28;20067;-63
2021/04/05 08:06:07;;;;;;;3.28;2.90;;;;;;;12.07;37.88;97956.13;5071603;28;20028;-63
2021/04/05 08:08:32;;;;;;;4.20;2.60;;;;;;;12.22;37.45;97950.44;5071869;28;20158;-62
2021/04/05 08:11:35;;;;;;;2.70;2.50;;;;;;;12.37;36.86;97951.63;5070838;28;20028;-62
2021/04/05 08:14:21;;;;;;;3.83;3.53;;;;;;;12.42;35.85;97944.56;5073232;28;20108;-63
2021/04/05 08:16:59;;;;;;;3.63;2.67;;;;;;;12.48;36.44;97951.19;5070671;28;20409;-62
2021/04/05 08:19:49;;;;;;;6.50;3.00;;;;;;;12.58;35.63;97935.38;5074829;28;20032;-63
2021/04/05 08:22:33;;;;;;;3.67;3.38;;;;;;;12.58;35.77;97935.38;5075129;28;20036;-62
2021/04/05 08:25:43;;;;;;;3.53;3.08;;;;;;;12.78;35.66;97924.31;5077165;28;20165;-63
2021/04/05 08:28:53;;;;;;;3.28;2.33;;;;;;;13.02;35.26;97925.09;5070631;28;20449;-63
2021/04/05 08:31:31;;;;;;;3.90;2.47;;;;;;;13.04;34.60;97910.41;5038515;28;20099;-63
2021/04/05 08:34:12;;;;;;;4.15;3.38;;;;;;;13.17;34.05;97891.88;5045302;28;20128;-63
2021/04/05 08:36:46;;;;;;;3.28;2.97;;;;;;;13.14;34.62;97886.88;5044158;28;20382;-63
2021/04/05 08:39:25;;;;;;;3.55;2.97;;;;;;;13.37;34.10;97879.91;5041576;28;20039;-63
2021/04/05 08:42:29;;;;;;;4.03;2.75;;;;;;;13.44;34.01;97871.88;5041468;28;20113;-62
2021/04/05 08:45:03;;;;;;;4.35;2.78;;;;;;;13.70;33.66;97863.03;5009513;28;20140;-63
2021/04/05 08:47:30;;;;;;;4.88;2.80;;;;;;;13.69;34.29;97861.34;5038417;28;20037;-63
2021/04/05 08:50:07;;;;;;;4.80;2.60;;;;;;;13.95;33.84;97862.78;5044509;28;20332;-63
2021/04/05 08:52:38;;;;;;;3.22;2.50;;;;;;;13.93;33.12;97855.09;5031527;28;20108;-63
2021/04/05 08:55:05;;;;;;;2.88;2.60;;;;;;;14.09;33.79;97856.09;5043118;28;20041;-64
2021/04/05 08:57:43;;;;;;;4.28;3.33;;;;;;;14.27;35.64;97851.81;5042938;28;20388;-63
2021/04/05 09:00:11;;;;;;;3.33;2.60;;;;;;;14.44;33.76;97849.34;5038681;28;20029;-62
2021/04/05 09:02:40;;;;;;;4.32;2.70;;;;;;;14.53;33.24;97836.00;5040585;28;20045;-62
2021/04/05 09:05:13;;;;;;;2.58;2.30;;;;;;;14.60;32.53;97827.06;5038735;28;20056;-63
2021/04/05 09:08:03;;;;;;;4.38;2.30;;;;;;;14.52;32.01;97836.91;5050080;28;20044;-63
2021/04/05 09:10:50;;;;;;;4.35;2.78;;;;;;;14.54;33.02;97819.63;5074484;28;20024;-63
2021/04/05 09:13:22;;;;;;;2.38;2.13;;;;;;;14.60;31.96;97826.22;5073342;28;20025;-64
2021/04/05 09:16:06;;;;;;;3.15;2.63;;;;;;;14.47;31.97;97815.66;5075020;28;20108;-62
2021/04/05 09:18:53;;;;;;;3.97;2.92;;;;;;;14.44;32.27;97810.66;5074880;28;20057;-66
2021/04/05 09:21:56;;;;;;;3.88;2.70;;;;;;;14.68;31.83;97795.75;5075542;28;20099;-63
2021/04/05 09:24:40;;;;;;;4.97;4.10;;;;;;;14.71;32.74;97790.44;5074931;28;20047;-64
2021/04/05 09:27:33;;;;;;;2.70;2.50;;;;;;;14.84;31.75;97777.75;5072689;28;20496;-67
2021/04/05 09:30:40;;;;;;;5.30;3.08;;;;;;;14.89;31.98;97774.06;5073739;28;20455;-66
2021/04/05 09:33:08;;;;;;;3.17;2.58;;;;;;;14.98;30.45;97755.50;5073468;28;20029;-65
2021/04/05 09:35:45;;;;;;;2.47;2.20;;;;;;;15.09;31.26;97754.97;5076035;28;20345;-65
2021/04/05 09:38:34;;;;;;;7.07;2.55;;;;;;;15.31;31.61;97747.78;5077101;28;20028;-65
2021/04/05 09:41:27;;;;;;;3.60;2.08;;;;;;;15.33;29.97;97745.09;5076879;28;20039;-65
2021/04/05 09:43:58;;;;;;;2.55;2.35;;;;;;;15.48;30.38;97731.41;5077167;28;20033;-65
2021/04/05 09:46:39;;;;;;;3.33;2.15;;;;;;;15.57;31.25;97727.53;5074084;28;20036;-64
2021/04/05 09:49:17;;;;;;;2.53;2.10;;;;;;;15.63;29.09;97720.28;5074581;28;20036;-64
2021/04/05 09:51:52;;;;;;;2.05;1.90;;;;;;;15.45;30.46;97713.47;5077183;28;20032;-65
2021/04/05 09:54:32;;;;;;;3.25;2.58;;;;;;;15.51;31.98;97708.84;5074180;28;20032;-64
2021/04/05 09:57:01;;;;;;;3.78;2.67;;;;;;;15.73;31.50;97710.28;5079873;28;20044;-64
2021/04/05 09:59:43;;;;;;;3.58;2.42;;;;;;;15.70;29.31;97698.34;5075421;28;20048;-64
2021/04/05 10:02:11;;;;;;;4.25;2.50;;;;;;;15.58;29.91;97691.25;5075893;28;20321;-64
2021/04/05 10:04:39;;;;;;;2.50;2.22;;;;;;;15.72;31.30;97683.59;5072551;28;20814;-64
2021/04/05 10:07:06;;;;;;;3.25;2.40;;;;;;;15.90;32.03;97669.66;5072901;28;20032;-64
2021/04/05 10:09:32;;;;;;;4.55;2.30;;;;;;;15.88;30.07;97673.25;5072708;28;20052;-64
2021/04/05 10:12:03;;;;;;;2.42;2.03;;;;;;;15.97;30.35;97673.56;5070558;28;20033;-64
2021/04/05 10:14:29;;;;;;;2.72;2.30;;;;;;;15.91;31.70;97658.38;5073833;28;20028;-64
2021/04/05 10:16:57;;;;;;;4.80;2.00;;;;;;;16.04;29.34;97649.97;5072552;28;20048;-64
2021/04/05 10:19:32;;;;;;;3.45;2.10;;;;;;;16.38;32.80;97645.34;5071566;28;20037;-64
2021/04/05 10:22:04;;;;;;;3.75;2.55;;;;;;;16.29;30.29;97640.72;5073377;28;20039;-64
2021/04/05 10:24:33;;;;;;;2.35;2.20;;;;;;;16.31;28.88;97633.69;5073911;28;20035;-64
2021/04/05 10:27:05;;;;;;;2.50;2.20;;;;;;;16.35;28.81;97627.41;5073383;28;20020;-64
2021/04/05 10:29:34;;;;;;;2.53;2.33;;;;;;;16.42;28.31;97622.75;5073022;28;20016;-64
2021/04/05 10:32:05;;;;;;;2.22;2.03;;;;;;;16.33;28.94;97618.09;5073168;28;20101;-64
2021/04/05 10:34:34;;;;;;;2.47;2.33;;;;;;;16.60;31.13;97613.91;5071616;28;20020;-64
2021/04/05 10:37:22;;;;;;;3.47;2.10;;;;;;;16.76;29.72;97606.88;5071274;28;20028;-64
2021/04/05 10:39:49;;;;;;;2.88;2.67;;;;;;;16.68;30.73;97593.56;5070499;28;20036;-64
2021/04/05 10:42:25;;;;;;;2.72;2.47;;;;;;;16.76;29.74;97581.00;5070661;28;20024;-65
2021/04/05 10:44:58;;;;;;;2.45;1.80;;;;;;;16.88;29.36;97579.44;5071343;28;20025;-65
2021/04/05 10:47:28;;;;;;;4.57;3.72;;;;;;;16.77;29.96;97563.72;5072046;28;20024;-65
2021/04/05 10:49:56;;;;;;;2.22;2.13;;;;;;;16.94;28.99;97553.16;5073102;28;20024;-65
2021/04/05 10:52:33;;;;;;;4.60;2.13;;;;;;;17.03;28.87;97554.34;5071421;28;20028;-65
2021/04/05 10:55:01;;;;;;;2.75;2.20;;;;;;;17.02;28.72;97544.91;5073722;28;20567;-64
2021/04/05 10:57:35;;;;;;;2.33;2.17;;;;;;;17.23;28.95;97539.22;5066775;28;20352;-65
2021/04/05 11:00:13;;;;;;;3.83;2.13;;;;;;;17.23;28.51;97530.63;5072561;28;20316;-65
2021/04/05 11:03:27;;;;;;;2.38;2.10;;;;;;;17.30;29.11;97531.91;5068499;28;20049;-65
2021/04/05 11:05:57;;;;;;;3.83;2.75;;;;;;;17.34;27.96;97523.00;5031145;28;20032;-64
2021/04/05 11:08:30;;;;;;;4.28;2.60;;;;;;;17.37;29.09;97509.84;5054221;28;20161;-64
2021/04/05 11:11:27;;;;;;;3.53;2.25;;;;;;;17.78;29.27;97505.41;5050909;28;20021;-64
2021/04/05 11:13:57;;;;;;;2.50;2.30;;;;;;;17.68;27.42;97503.56;5051576;28;20041;-64
2021/04/05 11:16:23;;;;;;;3.10;2.00;;;;;;;17.69;27.45;97493.09;5051776;28;20286;-64
2021/04/05 11:18:55;;;;;;;2.70;2.50;;;;;;;17.73;27.61;97494.56;5052009;28;20029;-64
2021/04/05 11:21:25;;;;;;;3.90;2.25;;;;;;;17.59;29.35;97486.84;5052977;28;20021;-65
2021/04/05 11:23:57;;;;;;;2.50;2.30;;;;;;;17.73;28.70;97479.00;5051895;28;20037;-66
2021/04/05 11:26:32;;;;;;;2.22;2.03;;;;;;;17.85;28.52;97474.75;5049230;28;20031;-65
2021/04/05 11:29:03;;;;;;;1.88;1.77;;;;;;;17.70;27.44;97470.56;5049617;28;20016;-65
2021/04/05 11:31:35;;;;;;;2.33;2.20;;;;;;;17.46;28.07;97469.56;5052006;28;20187;-66
2021/04/05 11:34:01;;;;;;;2.05;1.95;;;;;;;17.50;28.01;97466.66;5051256;28;20025;-66
2021/04/05 11:36:42;;;;;;;2.88;2.03;;;;;;;17.53;28.29;97461.28;5052897;28;20168;-66
2021/04/05 11:39:19;;;;;;;3.75;2.35;;;;;;;17.59;28.37;97444.53;5052026;28;20021;-66
2021/04/05 11:41:50;;;;;;;2.15;2.05;;;;;;;17.78;28.05;97429.41;5051917;28;20353;-66
2021/04/05 11:44:20;;;;;;;2.28;1.95;;;;;;;17.86;27.56;97418.53;5051878;28;20013;-65
2021/04/05 11:46:48;;;;;;;2.97;2.67;;;;;;;17.99;27.41;97416.78;5050574;28;20243;-66
2021/04/05 11:49:17;;;;;;;3.38;2.38;;;;;;;18.19;27.35;97411.88;5052934;28;20032;-66
2021/04/05 11:51:49;;;;;;;2.10;2.00;;;;;;;18.08;27.14;97406.56;5052112;28;20035;-66
2021/04/05 11:54:28;;;;;;;2.92;2.03;;;;;;;18.40;27.86;97403.53;5051547;28;20378;-67
2021/04/05 11:56:58;;;;;;;2.13;1.85;;;;;;;18.15;26.88;97401.81;5049262;28;20107;-66
2021/04/05 11:59:27;;;;;;;2.65;2.45;;;;;;;18.15;27.91;97388.84;5048749;28;20033;-64
2021/04/05 12:02:17;;;;;;;2.70;2.20;;;;;;;18.11;27.06;97390.00;5050950;28;20424;-63
2021/04/05 12:04:50;;;;;;;2.42;2.22;;;;;;;18.19;27.07;97385.94;5051663;28;20048;-61
2021/04/05 12:07:22;;;;;;;2.33;2.10;;;;;;;18.10;27.00;97378.78;5036669;28;20045;-63
2021/04/05 12:09:58;;;;;;;2.33;2.13;;;;;;;17.87;27.02;97376.94;5052126;28;20021;-63